Survev Vessel Fl II — AEMF — position and weather

sailwx.info

Track history (hours):
 
Tides and Currents Weather Stations Pressure Air Temp Water Temp Dewpoint Dewpoint Depression Visibility Wind Speed Wind Dir Waves Ship Positions

Survev Vessel Fl II

Last reported at 2018-Apr-13 16:21 UTC. Time now 2018-Apr-25 06:51 UTC.
Position N 27°04' W 080°05'.
Warning: this ship's position is 11 days out of date.

Length 21 m; draft 1 m.

Type: Military. MMSI: 369970622.

Date/timePositionNaut miles runAvg speedWind from/ knotsBaromVisibWave heightAir tempDewpointWater temp
2018-Apr-13 16:21N 27°04' W 080°05'410.8
2018-Apr-13 16:01N 27°01' W 080°03'0 0.8
2018-Apr-13 15:30N 27°01' W 080°04'0 0.5
2018-Apr-13 15:01N 27°01' W 080°04'0 0.3
2018-Apr-13 14:30N 27°00' W 080°03'1 1.1
2018-Apr-13 14:00N 27°01' W 080°03'0 0.5
2018-Apr-13 13:30N 27°01' W 080°03'1 1.0
2018-Apr-13 13:00N 27°00' W 080°03'1 1.5
2018-Apr-13 12:30N 27°01' W 080°03'2 0.1
2018-Apr-12 21:28N 26°60' W 080°05'3528.4
2018-Apr-12 20:14N 26°25' W 080°03'728.6
2018-Apr-12 20:00N 26°18' W 080°04'1325.9
2018-Apr-12 19:30N 26°06' W 080°06'1 2.8
2018-Apr-12 19:00N 26°07' W 080°06'0 0.0
2018-Apr-12 18:30N 26°07' W 080°06'0 0.0
2018-Apr-12 18:00N 26°07' W 080°06'0 0.0
2018-Apr-12 17:29N 26°07' W 080°06'0 0.0
2018-Apr-12 17:00N 26°07' W 080°06'0 0.0
2018-Apr-12 16:30N 26°07' W 080°06'0 0.0
2018-Apr-12 16:00N 26°07' W 080°06'0 0.0
2018-Apr-12 15:30N 26°07' W 080°06'0 0.0
2018-Apr-12 15:00N 26°07' W 080°06'0 0.0
2018-Apr-12 14:30N 26°07' W 080°06'0 0.0
2018-Apr-11 13:07N 26°07' W 080°06'0 0.0
2018-Apr-11 13:00N 26°07' W 080°06'0 0.0
2018-Apr-09 16:22N 26°07' W 080°06'1 2.8
2018-Apr-09 16:00N 26°06' W 080°07'0 0.0
2018-Apr-09 15:30N 26°06' W 080°07'2 4.0
2018-Apr-09 15:00N 26°05' W 080°05'1632.3
2018-Apr-09 14:30N 25°49' W 080°06'5 9.3
2018-Apr-09 14:00N 25°47' W 080°11'0 0.9
2018-Apr-09 13:30N 25°47' W 080°11'0 0.0
2018-Apr-09 13:00N 25°47' W 080°11'0 0.0
2018-Apr-08 21:53N 25°47' W 080°11'0 0.1
2018-Apr-08 21:31N 25°47' W 080°11'0 0.0
2018-Apr-08 21:00N 25°47' W 080°11'2 4.1
2018-Apr-08 20:31N 25°46' W 080°10'0 0.4
2018-Apr-08 20:01N 25°46' W 080°10'4 8.4
2018-Apr-08 19:31N 25°46' W 080°05'4 8.3
2018-Apr-08 19:00N 25°47' W 080°10'2 3.9
2018-Apr-08 18:29N 25°46' W 080°08'1 2.1
2018-Apr-08 18:00N 25°45' W 080°07'4 8.0
2018-Apr-08 17:30N 25°47' W 080°11'0 0.4
2018-Apr-08 17:00N 25°47' W 080°11'1 2.7
2018-Apr-08 16:30N 25°46' W 080°10'2 3.0
2018-Apr-08 16:00N 25°47' W 080°11'1 1.9
2018-Apr-08 15:31N 25°47' W 080°10'1 1.7
2018-Apr-08 15:00N 25°46' W 080°09'0 0.7
2018-Apr-08 14:30N 25°46' W 080°09'1 1.8
2018-Apr-08 14:01N 25°47' W 080°10'1 2.3
2018-Apr-08 13:30N 25°46' W 080°09'0 0.5
2018-Apr-08 13:00N 25°46' W 080°09'1 1.7
2018-Apr-08 12:30N 25°46' W 080°10'1 1.2
2018-Apr-08 12:00N 25°46' W 080°11'1 2.4
2018-Apr-08 11:30N 25°47' W 080°11'0 0.0
2018-Apr-07 15:06N 25°47' W 080°11'0 0.0
2018-Apr-07 15:00N 25°47' W 080°11'0 0.0
2018-Apr-07 14:30N 25°47' W 080°11'0 0.0
2018-Apr-07 14:01N 25°47' W 080°11'2 3.1
2018-Apr-07 13:30N 25°46' W 080°10'0 0.0
2018-Apr-07 13:00N 25°46' W 080°10'0 0.6
2018-Apr-07 12:30N 25°46' W 080°10'0 0.7
2018-Apr-07 12:01N 25°46' W 080°10'2 3.2
2018-Apr-07 11:30N 25°47' W 080°11'0 0.0
2018-Apr-05 19:53N 25°47' W 080°11'1 3.0
2018-Apr-05 19:30N 25°46' W 080°11'0 0.6
2018-Apr-05 19:00N 25°46' W 080°10'0 0.6
2018-Apr-05 18:30N 25°46' W 080°11'1 1.6
2018-Apr-05 18:00N 25°46' W 080°10'0 0.4
2018-Apr-05 17:31N 25°46' W 080°10'1 2.1
2018-Apr-05 17:01N 25°46' W 080°09'0 0.5
2018-Apr-05 16:31N 25°46' W 080°09'1 1.4
2018-Apr-05 16:00N 25°46' W 080°08'0 0.4
2018-Apr-05 15:30N 25°46' W 080°08'0 1.0
2018-Apr-05 15:00N 25°46' W 080°08'1 1.5
2018-Apr-05 14:31N 25°46' W 080°07'0 0.4
2018-Apr-05 14:00N 25°46' W 080°07'1 1.5
2018-Apr-05 13:30N 25°46' W 080°08'1 2.0
2018-Apr-05 13:00N 25°45' W 080°07'1 2.0
2018-Apr-05 12:30N 25°46' W 080°08'3 6.5
2018-Apr-05 12:00N 25°47' W 080°11'0 0.0
2018-Apr-04 20:04N 25°47' W 080°11'0 0.1
2018-Apr-04 20:00N 25°47' W 080°11'3 2.6
2018-Apr-04 19:00N 25°46' W 080°08'3 5.9
2018-Apr-04 18:30N 25°46' W 080°05'2 0.8
2018-Apr-04 16:30N 25°45' W 080°07'0 0.3
2018-Apr-04 15:30N 25°46' W 080°06'0 0.1
2018-Apr-04 15:00N 25°46' W 080°07'4 7.1
2018-Apr-04 14:30N 25°46' W 080°10'1 0.1
2018-Apr-03 17:49N 25°47' W 080°11'0 0.7
2018-Apr-03 17:31N 25°47' W 080°11'4 8.3
2018-Apr-03 17:01N 25°49' W 080°07'1428.2
2018-Apr-03 16:30N 26°03' W 080°05'  
Track history (hours):
 
Tides and Currents Weather Stations Pressure Air Temp Water Temp Dewpoint Dewpoint Depression Visibility Wind Speed Wind Dir Waves Ship Positions

Survev Vessel Fl II

Last reported at 2018-Apr-13 16:21 UTC. Time now 2018-Apr-25 06:51 UTC.
Position N 27°04' W 080°05'.
Warning: this ship's position is 11 days out of date.

Length 21 m; draft 1 m.

Type: Military. MMSI: 369970622.

Date/timePositionNaut miles runAvg speedWind from/ knotsBaromVisibWave heightAir tempDewpointWater temp
2018-Apr-13 16:21N 27°04' W 080°05'410.8
2018-Apr-13 16:01N 27°01' W 080°03'0 0.8
2018-Apr-13 15:30N 27°01' W 080°04'0 0.5
2018-Apr-13 15:01N 27°01' W 080°04'0 0.3
2018-Apr-13 14:30N 27°00' W 080°03'1 1.1
2018-Apr-13 14:00N 27°01' W 080°03'0 0.5
2018-Apr-13 13:30N 27°01' W 080°03'1 1.0
2018-Apr-13 13:00N 27°00' W 080°03'1 1.5
2018-Apr-13 12:30N 27°01' W 080°03'2 0.1
2018-Apr-12 21:28N 26°60' W 080°05'3528.4
2018-Apr-12 20:14N 26°25' W 080°03'728.6
2018-Apr-12 20:00N 26°18' W 080°04'1325.9
2018-Apr-12 19:30N 26°06' W 080°06'1 2.8
2018-Apr-12 19:00N 26°07' W 080°06'0 0.0
2018-Apr-12 18:30N 26°07' W 080°06'0 0.0
2018-Apr-12 18:00N 26°07' W 080°06'0 0.0
2018-Apr-12 17:29N 26°07' W 080°06'0 0.0
2018-Apr-12 17:00N 26°07' W 080°06'0 0.0
2018-Apr-12 16:30N 26°07' W 080°06'0 0.0
2018-Apr-12 16:00N 26°07' W 080°06'0 0.0
2018-Apr-12 15:30N 26°07' W 080°06'0 0.0
2018-Apr-12 15:00N 26°07' W 080°06'0 0.0
2018-Apr-12 14:30N 26°07' W 080°06'0 0.0
2018-Apr-11 13:07N 26°07' W 080°06'0 0.0
2018-Apr-11 13:00N 26°07' W 080°06'0 0.0
2018-Apr-09 16:22N 26°07' W 080°06'1 2.8
2018-Apr-09 16:00N 26°06' W 080°07'0 0.0
2018-Apr-09 15:30N 26°06' W 080°07'2 4.0
2018-Apr-09 15:00N 26°05' W 080°05'1632.3
2018-Apr-09 14:30N 25°49' W 080°06'5 9.3
2018-Apr-09 14:00N 25°47' W 080°11'0 0.9
2018-Apr-09 13:30N 25°47' W 080°11'0 0.0
2018-Apr-09 13:00N 25°47' W 080°11'0 0.0
2018-Apr-08 21:53N 25°47' W 080°11'0 0.1
2018-Apr-08 21:31N 25°47' W 080°11'0 0.0
2018-Apr-08 21:00N 25°47' W 080°11'2 4.1
2018-Apr-08 20:31N 25°46' W 080°10'0 0.4
2018-Apr-08 20:01N 25°46' W 080°10'4 8.4
2018-Apr-08 19:31N 25°46' W 080°05'4 8.3
2018-Apr-08 19:00N 25°47' W 080°10'2 3.9
2018-Apr-08 18:29N 25°46' W 080°08'1 2.1
2018-Apr-08 18:00N 25°45' W 080°07'4 8.0
2018-Apr-08 17:30N 25°47' W 080°11'0 0.4
2018-Apr-08 17:00N 25°47' W 080°11'1 2.7
2018-Apr-08 16:30N 25°46' W 080°10'2 3.0
2018-Apr-08 16:00N 25°47' W 080°11'1 1.9
2018-Apr-08 15:31N 25°47' W 080°10'1 1.7
2018-Apr-08 15:00N 25°46' W 080°09'0 0.7
2018-Apr-08 14:30N 25°46' W 080°09'1 1.8
2018-Apr-08 14:01N 25°47' W 080°10'1 2.3
2018-Apr-08 13:30N 25°46' W 080°09'0 0.5
2018-Apr-08 13:00N 25°46' W 080°09'1 1.7
2018-Apr-08 12:30N 25°46' W 080°10'1 1.2
2018-Apr-08 12:00N 25°46' W 080°11'1 2.4
2018-Apr-08 11:30N 25°47' W 080°11'0 0.0
2018-Apr-07 15:06N 25°47' W 080°11'0 0.0
2018-Apr-07 15:00N 25°47' W 080°11'0 0.0
2018-Apr-07 14:30N 25°47' W 080°11'0 0.0
2018-Apr-07 14:01N 25°47' W 080°11'2 3.1
2018-Apr-07 13:30N 25°46' W 080°10'0 0.0
2018-Apr-07 13:00N 25°46' W 080°10'0 0.6
2018-Apr-07 12:30N 25°46' W 080°10'0 0.7
2018-Apr-07 12:01N 25°46' W 080°10'2 3.2
2018-Apr-07 11:30N 25°47' W 080°11'0 0.0
2018-Apr-05 19:53N 25°47' W 080°11'1 3.0
2018-Apr-05 19:30N 25°46' W 080°11'0 0.6
2018-Apr-05 19:00N 25°46' W 080°10'0 0.6
2018-Apr-05 18:30N 25°46' W 080°11'1 1.6
2018-Apr-05 18:00N 25°46' W 080°10'0 0.4
2018-Apr-05 17:31N 25°46' W 080°10'1 2.1
2018-Apr-05 17:01N 25°46' W 080°09'0 0.5
2018-Apr-05 16:31N 25°46' W 080°09'1 1.4
2018-Apr-05 16:00N 25°46' W 080°08'0 0.4
2018-Apr-05 15:30N 25°46' W 080°08'0 1.0
2018-Apr-05 15:00N 25°46' W 080°08'1 1.5
2018-Apr-05 14:31N 25°46' W 080°07'0 0.4
2018-Apr-05 14:00N 25°46' W 080°07'1 1.5
2018-Apr-05 13:30N 25°46' W 080°08'1 2.0
2018-Apr-05 13:00N 25°45' W 080°07'1 2.0
2018-Apr-05 12:30N 25°46' W 080°08'3 6.5
2018-Apr-05 12:00N 25°47' W 080°11'0 0.0
2018-Apr-04 20:04N 25°47' W 080°11'0 0.1
2018-Apr-04 20:00N 25°47' W 080°11'3 2.6
2018-Apr-04 19:00N 25°46' W 080°08'3 5.9
2018-Apr-04 18:30N 25°46' W 080°05'2 0.8
2018-Apr-04 16:30N 25°45' W 080°07'0 0.3
2018-Apr-04 15:30N 25°46' W 080°06'0 0.1
2018-Apr-04 15:00N 25°46' W 080°07'4 7.1
2018-Apr-04 14:30N 25°46' W 080°10'1 0.1
2018-Apr-03 17:49N 25°47' W 080°11'0 0.7
2018-Apr-03 17:31N 25°47' W 080°11'4 8.3
2018-Apr-03 17:01N 25°49' W 080°07'1428.2
2018-Apr-03 16:30N 26°03' W 080°05'  

Dump ship's entire track history